Airfield :
LOGIN :

Register | Disclaimer

   EN    FR    IT 

 










Legend :    VFR   Marginal VFR   IFR   Intensive IFR   Very Intensive IFR
Visi :
Ceiling :
>= 8 km
>= 3000ft
5 to 8 km
1000 to 3000 ft
1500m to 5 km
500 to 1000 ft
800 to 1500m
200 to 500 ft
< 800m
< 200 ft
Symbols :   Thunderstorms  Fog  Heavy snow  Heavy precipitations  Wind > 20 kt
SIGMETs :     Misc.  Thunderstorms  Icing  Turbulence  Mountain Waves  Volcanic Ashes






- Airport Elevation : 336 ft
- IATA code : GCI


EGJB - Guernsey

CURRENT METAR :
  • 262050Z 24011KT 9999 -RA SCT005 BKN030 09/09 Q1008

EXPIRED METARs :
  • 262020Z 23010KT 9999 FEW002 SCT004 BKN006 09/09 Q1008
  • 261950Z 24009KT 9999 FEW002 BKN006 BKN048 09/09 Q1008
  • 261920Z 25009KT 9999 FEW002 SCT004 BKN032 09/09 Q1008
  • 261850Z 24008KT 9999 SCT004 SCT035 09/09 Q1008
  • 261820Z 24009KT 9999 VCSH SCT004 09/09 Q1008

TAF TAF EGJB
Valid from the 26 at 21:00 until the 27 at 06:00 UTC


261957Z 2621/2706 23013KT 9999 FEW006 SCT012
PROB40
TEMPO 2621/2706 24015G25KT 7000 SHRA BKN010TCU
ATIS : +44 1481 238 957



MET'MAP, your aeronautical weather chart ! - Copyright ORBIFLY December 2007 - Disclaimer

ORBIFLY MET'MAP TEAM :

Programming & Development : Alexandra Zaïnal
Concept & original design : Baudouin d'Aumeries
Assistance for programming : Marc-Olivier Méhu
Technical & hardware support : Manuel Goepfert

Contact : metmap@orbifly.com




SOURCES & CREDITS :

   NOAA